sensor_id;sensor_type;location;lat;lon;timestamp;P1;durP1;ratioP1;P2;durP2;ratioP2
14799;SDS011;7491;57.750;11.970;2023-06-10T00:01:38;4.45;;;1.00;;
14799;SDS011;7491;57.750;11.970;2023-06-10T00:04:04;2.00;;;1.10;;
14799;SDS011;7491;57.750;11.970;2023-06-10T00:06:31;1.35;;;1.15;;
14799;SDS011;7491;57.750;11.970;2023-06-10T00:09:01;1.10;;;1.00;;
14799;SDS011;7491;57.750;11.970;2023-06-10T00:11:30;1.33;;;1.00;;
14799;SDS011;7491;57.750;11.970;2023-06-10T00:13:57;1.10;;;1.00;;
14799;SDS011;7491;57.750;11.970;2023-06-10T00:16:24;1.23;;;1.13;;
14799;SDS011;7491;57.750;11.970;2023-06-10T00:18:52;1.80;;;1.10;;
14799;SDS011;7491;57.750;11.970;2023-06-10T00:21:21;0.88;;;0.88;;
14799;SDS011;7491;57.750;11.970;2023-06-10T00:23:49;0.90;;;0.90;;
14799;SDS011;7491;57.750;11.970;2023-06-10T00:26:16;2.92;;;0.90;;
14799;SDS011;7491;57.750;11.970;2023-06-10T00:28:43;0.98;;;0.98;;
14799;SDS011;7491;57.750;11.970;2023-06-10T00:31:10;1.02;;;0.90;;
14799;SDS011;7491;57.750;11.970;2023-06-10T00:33:37;0.90;;;0.90;;
14799;SDS011;7491;57.750;11.970;2023-06-10T00:36:05;1.17;;;1.05;;
14799;SDS011;7491;57.750;11.970;2023-06-10T00:38:32;0.77;;;0.77;;
14799;SDS011;7491;57.750;11.970;2023-06-10T00:40:59;1.60;;;0.80;;
14799;SDS011;7491;57.750;11.970;2023-06-10T00:43:26;1.00;;;0.80;;
14799;SDS011;7491;57.750;11.970;2023-06-10T00:45:53;0.90;;;0.90;;
14799;SDS011;7491;57.750;11.970;2023-06-10T00:48:20;0.95;;;0.95;;
14799;SDS011;7491;57.750;11.970;2023-06-10T00:50:47;1.25;;;0.93;;
14799;SDS011;7491;57.750;11.970;2023-06-10T00:53:16;1.33;;;1.13;;
14799;SDS011;7491;57.750;11.970;2023-06-10T00:55:43;0.90;;;0.80;;
14799;SDS011;7491;57.750;11.970;2023-06-10T00:58:10;1.05;;;0.95;;
14799;SDS011;7491;57.750;11.970;2023-06-10T01:00:37;1.05;;;0.95;;
14799;SDS011;7491;57.750;11.970;2023-06-10T01:03:04;3.00;;;1.00;;
14799;SDS011;7491;57.750;11.970;2023-06-10T01:05:33;1.75;;;1.00;;
14799;SDS011;7491;57.750;11.970;2023-06-10T01:08:02;0.90;;;0.90;;
14799;SDS011;7491;57.750;11.970;2023-06-10T01:10:35;1.40;;;1.00;;
14799;SDS011;7491;57.750;11.970;2023-06-10T01:13:07;1.65;;;1.10;;
14799;SDS011;7491;57.750;11.970;2023-06-10T01:15:38;1.35;;;1.00;;
14799;SDS011;7491;57.750;11.970;2023-06-10T01:18:05;1.08;;;1.00;;
14799;SDS011;7491;57.750;11.970;2023-06-10T01:20:35;1.30;;;1.20;;
14799;SDS011;7491;57.750;11.970;2023-06-10T01:23:07;1.52;;;1.42;;
14799;SDS011;7491;57.750;11.970;2023-06-10T01:25:36;5.07;;;2.88;;
14799;SDS011;7491;57.750;11.970;2023-06-10T01:28:05;3.88;;;2.75;;
14799;SDS011;7491;57.750;11.970;2023-06-10T01:30:37;3.85;;;2.90;;
14799;SDS011;7491;57.750;11.970;2023-06-10T01:33:14;4.07;;;3.00;;
14799;SDS011;7491;57.750;11.970;2023-06-10T01:35:44;5.68;;;2.78;;
14799;SDS011;7491;57.750;11.970;2023-06-10T01:38:14;3.72;;;2.63;;
14799;SDS011;7491;57.750;11.970;2023-06-10T01:40:43;1.70;;;1.50;;
14799;SDS011;7491;57.750;11.970;2023-06-10T01:43:12;2.70;;;1.05;;
14799;SDS011;7491;57.750;11.970;2023-06-10T01:45:39;1.30;;;1.17;;
14799;SDS011;7491;57.750;11.970;2023-06-10T01:48:06;1.33;;;1.17;;
14799;SDS011;7491;57.750;11.970;2023-06-10T01:50:33;0.90;;;0.90;;
14799;SDS011;7491;57.750;11.970;2023-06-10T01:52:59;0.80;;;0.80;;
14799;SDS011;7491;57.750;11.970;2023-06-10T01:55:28;1.75;;;1.00;;
14799;SDS011;7491;57.750;11.970;2023-06-10T01:57:54;0.98;;;0.70;;
14799;SDS011;7491;57.750;11.970;2023-06-10T02:00:21;0.80;;;0.80;;
14799;SDS011;7491;57.750;11.970;2023-06-10T02:02:48;0.90;;;0.90;;
14799;SDS011;7491;57.750;11.970;2023-06-10T02:05:15;1.40;;;0.90;;
14799;SDS011;7491;57.750;11.970;2023-06-10T02:07:42;0.70;;;0.70;;
14799;SDS011;7491;57.750;11.970;2023-06-10T02:10:08;0.93;;;0.80;;
14799;SDS011;7491;57.750;11.970;2023-06-10T02:12:37;1.15;;;1.05;;
14799;SDS011;7491;57.750;11.970;2023-06-10T02:15:04;1.10;;;0.73;;
14799;SDS011;7491;57.750;11.970;2023-06-10T02:17:31;1.10;;;0.93;;
14799;SDS011;7491;57.750;11.970;2023-06-10T02:19:58;0.93;;;0.90;;
14799;SDS011;7491;57.750;11.970;2023-06-10T02:22:31;3.05;;;2.20;;
14799;SDS011;7491;57.750;11.970;2023-06-10T02:24:58;2.67;;;1.80;;
14799;SDS011;7491;57.750;11.970;2023-06-10T02:27:25;2.63;;;2.00;;
14799;SDS011;7491;57.750;11.970;2023-06-10T02:29:53;5.53;;;3.30;;
14799;SDS011;7491;57.750;11.970;2023-06-10T02:32:20;6.20;;;3.90;;
14799;SDS011;7491;57.750;11.970;2023-06-10T02:34:47;4.88;;;2.05;;
14799;SDS011;7491;57.750;11.970;2023-06-10T02:37:14;3.30;;;1.70;;
14799;SDS011;7491;57.750;11.970;2023-06-10T02:39:41;1.77;;;1.00;;
14799;SDS011;7491;57.750;11.970;2023-06-10T02:42:08;1.55;;;1.10;;
14799;SDS011;7491;57.750;11.970;2023-06-10T02:44:35;2.67;;;1.38;;
14799;SDS011;7491;57.750;11.970;2023-06-10T02:47:03;1.00;;;0.90;;
14799;SDS011;7491;57.750;11.970;2023-06-10T02:49:30;1.42;;;1.02;;
14799;SDS011;7491;57.750;11.970;2023-06-10T02:51:57;2.55;;;1.05;;
14799;SDS011;7491;57.750;11.970;2023-06-10T02:54:24;0.70;;;0.70;;
14799;SDS011;7491;57.750;11.970;2023-06-10T02:56:51;0.88;;;0.80;;
14799;SDS011;7491;57.750;11.970;2023-06-10T02:59:20;3.00;;;0.77;;
14799;SDS011;7491;57.750;11.970;2023-06-10T03:01:47;1.95;;;0.73;;
14799;SDS011;7491;57.750;11.970;2023-06-10T03:04:15;1.00;;;0.80;;
14799;SDS011;7491;57.750;11.970;2023-06-10T03:06:43;0.65;;;0.65;;
14799;SDS011;7491;57.750;11.970;2023-06-10T03:09:10;0.95;;;0.60;;
14799;SDS011;7491;57.750;11.970;2023-06-10T03:11:37;1.95;;;0.73;;
14799;SDS011;7491;57.750;11.970;2023-06-10T03:14:04;0.50;;;0.50;;
14799;SDS011;7491;57.750;11.970;2023-06-10T03:16:31;0.70;;;0.70;;
14799;SDS011;7491;57.750;11.970;2023-06-10T03:18:57;0.50;;;0.50;;
14799;SDS011;7491;57.750;11.970;2023-06-10T03:21:26;1.08;;;0.82;;
14799;SDS011;7491;57.750;11.970;2023-06-10T03:23:53;0.60;;;0.60;;
14799;SDS011;7491;57.750;11.970;2023-06-10T03:26:20;0.50;;;0.50;;
14799;SDS011;7491;57.750;11.970;2023-06-10T03:28:47;1.00;;;0.80;;
14799;SDS011;7491;57.750;11.970;2023-06-10T03:31:14;0.93;;;0.77;;
14799;SDS011;7491;57.750;11.970;2023-06-10T03:33:42;1.98;;;1.30;;
14799;SDS011;7491;57.750;11.970;2023-06-10T03:36:08;5.32;;;1.88;;
14799;SDS011;7491;57.750;11.970;2023-06-10T03:38:37;5.72;;;2.08;;
14799;SDS011;7491;57.750;11.970;2023-06-10T03:41:03;2.65;;;2.00;;
14799;SDS011;7491;57.750;11.970;2023-06-10T03:43:30;4.18;;;3.00;;
14799;SDS011;7491;57.750;11.970;2023-06-10T03:45:57;3.42;;;1.92;;
14799;SDS011;7491;57.750;11.970;2023-06-10T03:48:24;4.90;;;2.58;;
14799;SDS011;7491;57.750;11.970;2023-06-10T03:50:51;3.33;;;2.22;;
14799;SDS011;7491;57.750;11.970;2023-06-10T03:53:17;3.20;;;1.90;;
14799;SDS011;7491;57.750;11.970;2023-06-10T03:55:45;2.72;;;1.50;;
14799;SDS011;7491;57.750;11.970;2023-06-10T03:58:13;2.25;;;1.40;;
14799;SDS011;7491;57.750;11.970;2023-06-10T04:00:40;2.53;;;1.40;;
14799;SDS011;7491;57.750;11.970;2023-06-10T04:03:07;1.23;;;1.02;;
14799;SDS011;7491;57.750;11.970;2023-06-10T04:05:39;1.65;;;1.23;;
14799;SDS011;7491;57.750;11.970;2023-06-10T04:08:07;1.17;;;1.02;;
14799;SDS011;7491;57.750;11.970;2023-06-10T04:10:34;1.27;;;0.73;;
14799;SDS011;7491;57.750;11.970;2023-06-10T04:13:02;1.58;;;0.65;;
14799;SDS011;7491;57.750;11.970;2023-06-10T04:15:29;1.77;;;0.60;;
14799;SDS011;7491;57.750;11.970;2023-06-10T04:17:57;3.40;;;0.68;;
14799;SDS011;7491;57.750;11.970;2023-06-10T04:20:24;0.80;;;0.55;;
14799;SDS011;7491;57.750;11.970;2023-06-10T04:22:51;1.13;;;0.65;;
14799;SDS011;7491;57.750;11.970;2023-06-10T04:25:18;0.63;;;0.60;;
14799;SDS011;7491;57.750;11.970;2023-06-10T04:27:45;0.65;;;0.60;;
14799;SDS011;7491;57.750;11.970;2023-06-10T04:30:14;0.60;;;0.60;;
14799;SDS011;7491;57.750;11.970;2023-06-10T04:32:41;0.40;;;0.40;;
14799;SDS011;7491;57.750;11.970;2023-06-10T04:35:08;1.48;;;0.50;;
14799;SDS011;7491;57.750;11.970;2023-06-10T04:37:38;2.08;;;0.60;;
14799;SDS011;7491;57.750;11.970;2023-06-10T04:40:05;0.40;;;0.40;;
14799;SDS011;7491;57.750;11.970;2023-06-10T04:42:32;0.60;;;0.60;;
14799;SDS011;7491;57.750;11.970;2023-06-10T04:44:59;1.17;;;0.50;;
14799;SDS011;7491;57.750;11.970;2023-06-10T04:47:28;0.50;;;0.50;;
14799;SDS011;7491;57.750;11.970;2023-06-10T04:49:58;0.50;;;0.50;;
14799;SDS011;7491;57.750;11.970;2023-06-10T04:52:25;2.08;;;0.50;;
14799;SDS011;7491;57.750;11.970;2023-06-10T04:54:52;0.77;;;0.60;;
14799;SDS011;7491;57.750;11.970;2023-06-10T04:57:18;0.45;;;0.43;;
14799;SDS011;7491;57.750;11.970;2023-06-10T04:59:45;0.63;;;0.63;;
14799;SDS011;7491;57.750;11.970;2023-06-10T05:02:12;0.55;;;0.55;;
14799;SDS011;7491;57.750;11.970;2023-06-10T05:04:40;0.40;;;0.40;;
14799;SDS011;7491;57.750;11.970;2023-06-10T05:07:07;1.52;;;0.50;;
14799;SDS011;7491;57.750;11.970;2023-06-10T05:09:34;2.83;;;0.73;;
14799;SDS011;7491;57.750;11.970;2023-06-10T05:12:01;0.40;;;0.40;;
14799;SDS011;7491;57.750;11.970;2023-06-10T05:14:28;0.63;;;0.50;;
14799;SDS011;7491;57.750;11.970;2023-06-10T05:16:55;0.40;;;0.40;;
14799;SDS011;7491;57.750;11.970;2023-06-10T05:19:22;0.40;;;0.40;;
14799;SDS011;7491;57.750;11.970;2023-06-10T05:21:50;1.98;;;0.43;;
14799;SDS011;7491;57.750;11.970;2023-06-10T05:24:17;1.80;;;0.40;;
14799;SDS011;7491;57.750;11.970;2023-06-10T05:26:44;0.30;;;0.30;;
14799;SDS011;7491;57.750;11.970;2023-06-10T05:29:13;0.40;;;0.40;;
14799;SDS011;7491;57.750;11.970;2023-06-10T05:31:40;0.40;;;0.40;;
14799;SDS011;7491;57.750;11.970;2023-06-10T05:34:07;0.60;;;0.60;;
14799;SDS011;7491;57.750;11.970;2023-06-10T05:36:34;0.52;;;0.30;;
14799;SDS011;7491;57.750;11.970;2023-06-10T05:39:02;0.50;;;0.50;;
14799;SDS011;7491;57.750;11.970;2023-06-10T05:41:29;0.45;;;0.45;;
14799;SDS011;7491;57.750;11.970;2023-06-10T05:43:56;0.40;;;0.40;;
14799;SDS011;7491;57.750;11.970;2023-06-10T05:46:22;0.50;;;0.50;;
14799;SDS011;7491;57.750;11.970;2023-06-10T05:48:49;0.55;;;0.40;;
14799;SDS011;7491;57.750;11.970;2023-06-10T05:51:16;1.60;;;0.60;;
14799;SDS011;7491;57.750;11.970;2023-06-10T05:53:43;0.45;;;0.45;;
14799;SDS011;7491;57.750;11.970;2023-06-10T05:56:12;0.65;;;0.50;;
14799;SDS011;7491;57.750;11.970;2023-06-10T05:58:39;0.40;;;0.40;;
14799;SDS011;7491;57.750;11.970;2023-06-10T06:01:06;0.57;;;0.57;;
14799;SDS011;7491;57.750;11.970;2023-06-10T06:03:33;0.60;;;0.60;;
14799;SDS011;7491;57.750;11.970;2023-06-10T06:06:00;1.83;;;0.60;;
14799;SDS011;7491;57.750;11.970;2023-06-10T06:08:27;0.50;;;0.50;;
14799;SDS011;7491;57.750;11.970;2023-06-10T06:10:53;0.55;;;0.55;;
14799;SDS011;7491;57.750;11.970;2023-06-10T06:13:22;0.30;;;0.30;;
14799;SDS011;7491;57.750;11.970;2023-06-10T06:15:49;0.40;;;0.40;;
14799;SDS011;7491;57.750;11.970;2023-06-10T06:18:16;0.43;;;0.43;;
14799;SDS011;7491;57.750;11.970;2023-06-10T06:20:43;1.50;;;0.70;;
14799;SDS011;7491;57.750;11.970;2023-06-10T06:23:10;1.23;;;0.68;;
14799;SDS011;7491;57.750;11.970;2023-06-10T06:25:37;0.40;;;0.40;;
14799;SDS011;7491;57.750;11.970;2023-06-10T06:28:04;0.75;;;0.75;;
14799;SDS011;7491;57.750;11.970;2023-06-10T06:30:33;0.50;;;0.50;;
14799;SDS011;7491;57.750;11.970;2023-06-10T06:33:00;1.48;;;0.43;;
14799;SDS011;7491;57.750;11.970;2023-06-10T06:35:27;0.47;;;0.40;;
14799;SDS011;7491;57.750;11.970;2023-06-10T06:37:54;1.45;;;0.63;;
14799;SDS011;7491;57.750;11.970;2023-06-10T06:40:21;1.08;;;0.57;;
14799;SDS011;7491;57.750;11.970;2023-06-10T06:42:48;1.30;;;0.35;;
14799;SDS011;7491;57.750;11.970;2023-06-10T06:45:15;1.73;;;0.60;;
14799;SDS011;7491;57.750;11.970;2023-06-10T06:47:43;1.75;;;0.40;;
14799;SDS011;7491;57.750;11.970;2023-06-10T06:50:10;1.02;;;0.40;;
14799;SDS011;7491;57.750;11.970;2023-06-10T06:52:37;1.60;;;0.55;;
14799;SDS011;7491;57.750;11.970;2023-06-10T06:55:04;0.60;;;0.60;;
14799;SDS011;7491;57.750;11.970;2023-06-10T06:57:32;2.03;;;0.50;;
14799;SDS011;7491;57.750;11.970;2023-06-10T06:59:58;0.57;;;0.57;;
14799;SDS011;7491;57.750;11.970;2023-06-10T07:02:25;1.48;;;0.50;;
14799;SDS011;7491;57.750;11.970;2023-06-10T07:04:53;0.73;;;0.38;;
14799;SDS011;7491;57.750;11.970;2023-06-10T07:07:21;1.30;;;0.50;;
14799;SDS011;7491;57.750;11.970;2023-06-10T07:09:47;0.55;;;0.50;;
14799;SDS011;7491;57.750;11.970;2023-06-10T07:12:14;1.50;;;0.50;;
14799;SDS011;7491;57.750;11.970;2023-06-10T07:14:42;1.45;;;0.43;;
14799;SDS011;7491;57.750;11.970;2023-06-10T07:17:09;0.77;;;0.40;;
14799;SDS011;7491;57.750;11.970;2023-06-10T07:19:36;0.80;;;0.80;;
14799;SDS011;7491;57.750;11.970;2023-06-10T07:22:05;3.70;;;0.90;;
14799;SDS011;7491;57.750;11.970;2023-06-10T07:24:32;1.38;;;0.50;;
14799;SDS011;7491;57.750;11.970;2023-06-10T07:26:59;0.40;;;0.40;;
14799;SDS011;7491;57.750;11.970;2023-06-10T07:29:25;1.65;;;0.60;;
14799;SDS011;7491;57.750;11.970;2023-06-10T07:31:52;0.50;;;0.43;;
14799;SDS011;7491;57.750;11.970;2023-06-10T07:34:19;0.85;;;0.60;;
14799;SDS011;7491;57.750;11.970;2023-06-10T07:36:46;0.60;;;0.60;;
14799;SDS011;7491;57.750;11.970;2023-06-10T07:39:14;0.55;;;0.50;;
14799;SDS011;7491;57.750;11.970;2023-06-10T07:41:41;0.60;;;0.60;;
14799;SDS011;7491;57.750;11.970;2023-06-10T07:44:08;0.80;;;0.60;;
14799;SDS011;7491;57.750;11.970;2023-06-10T07:46:35;0.43;;;0.40;;
14799;SDS011;7491;57.750;11.970;2023-06-10T07:49:01;1.10;;;0.60;;
14799;SDS011;7491;57.750;11.970;2023-06-10T07:51:28;1.05;;;0.70;;
14799;SDS011;7491;57.750;11.970;2023-06-10T07:53:55;0.60;;;0.60;;
14799;SDS011;7491;57.750;11.970;2023-06-10T07:56:23;2.50;;;0.55;;
14799;SDS011;7491;57.750;11.970;2023-06-10T07:58:51;0.60;;;0.60;;
14799;SDS011;7491;57.750;11.970;2023-06-10T08:01:18;2.47;;;1.05;;
14799;SDS011;7491;57.750;11.970;2023-06-10T08:03:45;4.78;;;0.70;;
14799;SDS011;7491;57.750;11.970;2023-06-10T08:06:12;1.02;;;0.77;;
14799;SDS011;7491;57.750;11.970;2023-06-10T08:08:39;0.60;;;0.60;;
14799;SDS011;7491;57.750;11.970;2023-06-10T08:11:08;1.45;;;0.60;;
14799;SDS011;7491;57.750;11.970;2023-06-10T08:13:36;1.15;;;0.70;;
14799;SDS011;7491;57.750;11.970;2023-06-10T08:16:03;1.65;;;0.70;;
14799;SDS011;7491;57.750;11.970;2023-06-10T08:18:30;4.05;;;0.65;;
14799;SDS011;7491;57.750;11.970;2023-06-10T08:20:57;2.08;;;0.80;;
14799;SDS011;7491;57.750;11.970;2023-06-10T08:23:24;0.82;;;0.60;;
14799;SDS011;7491;57.750;11.970;2023-06-10T08:25:51;0.68;;;0.60;;
14799;SDS011;7491;57.750;11.970;2023-06-10T08:28:18;2.15;;;0.70;;
14799;SDS011;7491;57.750;11.970;2023-06-10T08:30:46;0.95;;;0.73;;
14799;SDS011;7491;57.750;11.970;2023-06-10T08:33:13;1.45;;;0.90;;
14799;SDS011;7491;57.750;11.970;2023-06-10T08:35:40;1.25;;;0.70;;
14799;SDS011;7491;57.750;11.970;2023-06-10T08:38:07;1.00;;;1.00;;
14799;SDS011;7491;57.750;11.970;2023-06-10T08:40:34;0.63;;;0.63;;
14799;SDS011;7491;57.750;11.970;2023-06-10T08:43:03;0.80;;;0.80;;
14799;SDS011;7491;57.750;11.970;2023-06-10T08:45:32;0.90;;;0.90;;
14799;SDS011;7491;57.750;11.970;2023-06-10T08:48:03;0.82;;;0.73;;
14799;SDS011;7491;57.750;11.970;2023-06-10T08:50:34;1.58;;;0.63;;
14799;SDS011;7491;57.750;11.970;2023-06-10T08:53:02;0.68;;;0.68;;
14799;SDS011;7491;57.750;11.970;2023-06-10T08:55:32;0.85;;;0.85;;
14799;SDS011;7491;57.750;11.970;2023-06-10T08:58:00;2.92;;;0.88;;
14799;SDS011;7491;57.750;11.970;2023-06-10T09:00:28;0.93;;;0.70;;
14799;SDS011;7491;57.750;11.970;2023-06-10T09:02:57;2.25;;;1.10;;
14799;SDS011;7491;57.750;11.970;2023-06-10T09:05:26;2.50;;;0.90;;
14799;SDS011;7491;57.750;11.970;2023-06-10T09:07:53;1.20;;;0.82;;
14799;SDS011;7491;57.750;11.970;2023-06-10T09:10:23;0.93;;;0.77;;
14799;SDS011;7491;57.750;11.970;2023-06-10T09:12:50;4.38;;;1.38;;
14799;SDS011;7491;57.750;11.970;2023-06-10T09:15:17;1.02;;;0.80;;
14799;SDS011;7491;57.750;11.970;2023-06-10T09:17:44;1.00;;;0.90;;
14799;SDS011;7491;57.750;11.970;2023-06-10T09:20:11;1.58;;;1.17;;
14799;SDS011;7491;57.750;11.970;2023-06-10T09:22:40;1.33;;;0.70;;
14799;SDS011;7491;57.750;11.970;2023-06-10T09:25:10;0.80;;;0.80;;
14799;SDS011;7491;57.750;11.970;2023-06-10T09:27:44;1.10;;;0.70;;
14799;SDS011;7491;57.750;11.970;2023-06-10T09:30:23;0.63;;;0.63;;
14799;SDS011;7491;57.750;11.970;2023-06-10T09:32:52;1.85;;;0.90;;
14799;SDS011;7491;57.750;11.970;2023-06-10T09:35:21;1.33;;;0.80;;
14799;SDS011;7491;57.750;11.970;2023-06-10T09:37:51;1.00;;;0.77;;
14799;SDS011;7491;57.750;11.970;2023-06-10T09:40:18;1.20;;;1.10;;
14799;SDS011;7491;57.750;11.970;2023-06-10T09:42:46;0.93;;;0.93;;
14799;SDS011;7491;57.750;11.970;2023-06-10T09:45:18;1.13;;;0.93;;
14799;SDS011;7491;57.750;11.970;2023-06-10T09:47:45;3.42;;;0.90;;
14799;SDS011;7491;57.750;11.970;2023-06-10T09:50:12;1.02;;;0.93;;
14799;SDS011;7491;57.750;11.970;2023-06-10T09:52:39;1.48;;;0.90;;
14799;SDS011;7491;57.750;11.970;2023-06-10T09:55:08;1.65;;;1.00;;
14799;SDS011;7491;57.750;11.970;2023-06-10T09:57:36;1.20;;;0.80;;
14799;SDS011;7491;57.750;11.970;2023-06-10T10:00:04;0.70;;;0.70;;
14799;SDS011;7491;57.750;11.970;2023-06-10T10:02:33;1.23;;;1.10;;
14799;SDS011;7491;57.750;11.970;2023-06-10T10:05:10;2.15;;;0.93;;
14799;SDS011;7491;57.750;11.970;2023-06-10T10:07:40;0.95;;;0.90;;
14799;SDS011;7491;57.750;11.970;2023-06-10T10:10:09;0.88;;;0.88;;
14799;SDS011;7491;57.750;11.970;2023-06-10T10:12:37;2.92;;;1.00;;
14799;SDS011;7491;57.750;11.970;2023-06-10T10:15:05;0.90;;;0.90;;
14799;SDS011;7491;57.750;11.970;2023-06-10T10:17:34;1.13;;;0.90;;
14799;SDS011;7491;57.750;11.970;2023-06-10T10:20:04;1.58;;;0.90;;
14799;SDS011;7491;57.750;11.970;2023-06-10T10:22:35;0.80;;;0.80;;
14799;SDS011;7491;57.750;11.970;2023-06-10T10:25:05;2.25;;;1.15;;
14799;SDS011;7491;57.750;11.970;2023-06-10T10:27:39;0.90;;;0.90;;
14799;SDS011;7491;57.750;11.970;2023-06-10T10:30:10;1.80;;;0.82;;
14799;SDS011;7491;57.750;11.970;2023-06-10T10:32:38;1.10;;;1.00;;
14799;SDS011;7491;57.750;11.970;2023-06-10T10:35:14;1.42;;;1.05;;
14799;SDS011;7491;57.750;11.970;2023-06-10T10:37:48;1.05;;;0.95;;
14799;SDS011;7491;57.750;11.970;2023-06-10T10:40:16;1.20;;;1.10;;
14799;SDS011;7491;57.750;11.970;2023-06-10T10:42:43;0.80;;;0.80;;
14799;SDS011;7491;57.750;11.970;2023-06-10T10:45:11;0.98;;;0.98;;
14799;SDS011;7491;57.750;11.970;2023-06-10T10:47:38;1.25;;;1.15;;
14799;SDS011;7491;57.750;11.970;2023-06-10T10:50:12;1.20;;;0.82;;
14799;SDS011;7491;57.750;11.970;2023-06-10T10:52:51;1.20;;;1.10;;
14799;SDS011;7491;57.750;11.970;2023-06-10T10:55:23;2.22;;;1.20;;
14799;SDS011;7491;57.750;11.970;2023-06-10T10:57:54;2.80;;;0.98;;
14799;SDS011;7491;57.750;11.970;2023-06-10T11:00:26;2.47;;;1.20;;
14799;SDS011;7491;57.750;11.970;2023-06-10T11:02:57;3.40;;;1.17;;
14799;SDS011;7491;57.750;11.970;2023-06-10T11:05:31;0.95;;;0.90;;
14799;SDS011;7491;57.750;11.970;2023-06-10T11:08:04;1.20;;;1.10;;
14799;SDS011;7491;57.750;11.970;2023-06-10T11:10:33;1.80;;;1.10;;
14799;SDS011;7491;57.750;11.970;2023-06-10T11:13:05;3.65;;;0.90;;
14799;SDS011;7491;57.750;11.970;2023-06-10T11:15:33;1.00;;;0.88;;
14799;SDS011;7491;57.750;11.970;2023-06-10T11:18:11;0.90;;;0.90;;
14799;SDS011;7491;57.750;11.970;2023-06-10T11:20:45;1.10;;;0.90;;
14799;SDS011;7491;57.750;11.970;2023-06-10T11:23:35;1.20;;;1.10;;
14799;SDS011;7491;57.750;11.970;2023-06-10T11:26:29;1.20;;;1.00;;
14799;SDS011;7491;57.750;11.970;2023-06-10T11:31:52;1.20;;;1.08;;
14799;SDS011;7491;57.750;11.970;2023-06-10T11:34:23;1.00;;;1.00;;
14799;SDS011;7491;57.750;11.970;2023-06-10T11:36:52;1.17;;;1.08;;
14799;SDS011;7491;57.750;11.970;2023-06-10T11:39:20;5.47;;;2.80;;
14799;SDS011;7491;57.750;11.970;2023-06-10T11:41:50;2.13;;;1.40;;
14799;SDS011;7491;57.750;11.970;2023-06-10T11:44:17;2.60;;;1.23;;
14799;SDS011;7491;57.750;11.970;2023-06-10T11:46:44;1.40;;;1.30;;
14799;SDS011;7491;57.750;11.970;2023-06-10T11:49:11;1.20;;;1.10;;
14799;SDS011;7491;57.750;11.970;2023-06-10T11:51:39;2.90;;;1.20;;
14799;SDS011;7491;57.750;11.970;2023-06-10T11:54:14;1.23;;;1.10;;
14799;SDS011;7491;57.750;11.970;2023-06-10T11:56:42;1.88;;;1.40;;
14799;SDS011;7491;57.750;11.970;2023-06-10T11:59:11;3.25;;;1.17;;
14799;SDS011;7491;57.750;11.970;2023-06-10T12:01:38;1.35;;;1.20;;
14799;SDS011;7491;57.750;11.970;2023-06-10T12:04:10;1.33;;;1.17;;
14799;SDS011;7491;57.750;11.970;2023-06-10T12:06:38;1.55;;;1.30;;
14799;SDS011;7491;57.750;11.970;2023-06-10T12:09:07;3.25;;;1.60;;
14799;SDS011;7491;57.750;11.970;2023-06-10T12:11:38;7.68;;;5.25;;
14799;SDS011;7491;57.750;11.970;2023-06-10T12:14:06;2.20;;;1.90;;
14799;SDS011;7491;57.750;11.970;2023-06-10T12:16:34;10.25;;;6.75;;
14799;SDS011;7491;57.750;11.970;2023-06-10T12:19:01;1.08;;;1.00;;
14799;SDS011;7491;57.750;11.970;2023-06-10T12:21:29;1.13;;;1.08;;
14799;SDS011;7491;57.750;11.970;2023-06-10T12:24:01;2.55;;;1.40;;
14799;SDS011;7491;57.750;11.970;2023-06-10T12:26:35;1.05;;;1.05;;
14799;SDS011;7491;57.750;11.970;2023-06-10T12:31:59;1.10;;;1.10;;
14799;SDS011;7491;57.750;11.970;2023-06-10T12:34:31;1.60;;;1.40;;
14799;SDS011;7491;57.750;11.970;2023-06-10T12:37:00;1.20;;;1.13;;
14799;SDS011;7491;57.750;11.970;2023-06-10T12:39:28;1.25;;;1.10;;
14799;SDS011;7491;57.750;11.970;2023-06-10T12:41:55;2.42;;;1.15;;
14799;SDS011;7491;57.750;11.970;2023-06-10T12:44:28;1.95;;;1.40;;
14799;SDS011;7491;57.750;11.970;2023-06-10T12:46:56;1.75;;;1.30;;
14799;SDS011;7491;57.750;11.970;2023-06-10T12:49:24;3.95;;;1.20;;
14799;SDS011;7491;57.750;11.970;2023-06-10T12:51:51;1.55;;;1.08;;
14799;SDS011;7491;57.750;11.970;2023-06-10T12:54:18;1.58;;;1.17;;
14799;SDS011;7491;57.750;11.970;2023-06-10T12:56:45;1.27;;;1.00;;
14799;SDS011;7491;57.750;11.970;2023-06-10T12:59:12;1.60;;;1.33;;
14799;SDS011;7491;57.750;11.970;2023-06-10T13:01:39;1.92;;;0.95;;
14799;SDS011;7491;57.750;11.970;2023-06-10T13:04:06;3.17;;;1.10;;
14799;SDS011;7491;57.750;11.970;2023-06-10T13:06:34;2.33;;;1.40;;
14799;SDS011;7491;57.750;11.970;2023-06-10T13:09:04;2.35;;;1.60;;
14799;SDS011;7491;57.750;11.970;2023-06-10T13:11:32;1.30;;;1.20;;
14799;SDS011;7491;57.750;11.970;2023-06-10T13:14:00;1.30;;;1.20;;
14799;SDS011;7491;57.750;11.970;2023-06-10T13:16:27;1.23;;;1.13;;
14799;SDS011;7491;57.750;11.970;2023-06-10T13:18:54;1.30;;;1.20;;
14799;SDS011;7491;57.750;11.970;2023-06-10T13:21:21;2.03;;;1.20;;
14799;SDS011;7491;57.750;11.970;2023-06-10T13:23:49;1.98;;;1.15;;
14799;SDS011;7491;57.750;11.970;2023-06-10T13:26:16;0.90;;;0.90;;
14799;SDS011;7491;57.750;11.970;2023-06-10T13:28:43;1.13;;;1.02;;
14799;SDS011;7491;57.750;11.970;2023-06-10T13:31:10;1.45;;;1.33;;
14799;SDS011;7491;57.750;11.970;2023-06-10T13:33:37;0.90;;;0.90;;
14799;SDS011;7491;57.750;11.970;2023-06-10T13:36:04;2.28;;;1.40;;
14799;SDS011;7491;57.750;11.970;2023-06-10T13:38:31;1.70;;;1.60;;
14799;SDS011;7491;57.750;11.970;2023-06-10T13:40:59;1.20;;;1.00;;
14799;SDS011;7491;57.750;11.970;2023-06-10T13:43:26;1.10;;;1.10;;
14799;SDS011;7491;57.750;11.970;2023-06-10T13:45:54;4.70;;;1.40;;
14799;SDS011;7491;57.750;11.970;2023-06-10T13:48:20;5.13;;;1.17;;
14799;SDS011;7491;57.750;11.970;2023-06-10T13:50:47;2.38;;;1.08;;
14799;SDS011;7491;57.750;11.970;2023-06-10T13:53:14;1.88;;;1.20;;
14799;SDS011;7491;57.750;11.970;2023-06-10T13:55:41;1.50;;;1.30;;
14799;SDS011;7491;57.750;11.970;2023-06-10T13:58:09;2.05;;;1.42;;
14799;SDS011;7491;57.750;11.970;2023-06-10T14:00:36;1.50;;;1.05;;
14799;SDS011;7491;57.750;11.970;2023-06-10T14:03:03;1.90;;;1.20;;
14799;SDS011;7491;57.750;11.970;2023-06-10T14:05:30;1.30;;;1.20;;
14799;SDS011;7491;57.750;11.970;2023-06-10T14:07:56;1.75;;;1.20;;
14799;SDS011;7491;57.750;11.970;2023-06-10T14:10:23;1.25;;;1.15;;
14799;SDS011;7491;57.750;11.970;2023-06-10T14:12:50;1.92;;;1.40;;
14799;SDS011;7491;57.750;11.970;2023-06-10T14:15:19;2.75;;;1.35;;
14799;SDS011;7491;57.750;11.970;2023-06-10T14:17:45;1.60;;;1.23;;
14799;SDS011;7491;57.750;11.970;2023-06-10T14:20:12;2.75;;;1.15;;
14799;SDS011;7491;57.750;11.970;2023-06-10T14:22:39;1.20;;;1.10;;
14799;SDS011;7491;57.750;11.970;2023-06-10T14:25:06;1.17;;;1.10;;
14799;SDS011;7491;57.750;11.970;2023-06-10T14:27:33;1.20;;;1.10;;
14799;SDS011;7491;57.750;11.970;2023-06-10T14:30:00;1.30;;;1.20;;
14799;SDS011;7491;57.750;11.970;2023-06-10T14:32:29;1.30;;;1.20;;
14799;SDS011;7491;57.750;11.970;2023-06-10T14:34:56;1.50;;;1.40;;
14799;SDS011;7491;57.750;11.970;2023-06-10T14:37:22;1.70;;;1.45;;
14799;SDS011;7491;57.750;11.970;2023-06-10T14:39:49;1.23;;;1.13;;
14799;SDS011;7491;57.750;11.970;2023-06-10T14:42:16;2.38;;;1.30;;
14799;SDS011;7491;57.750;11.970;2023-06-10T14:44:43;1.15;;;1.10;;
14799;SDS011;7491;57.750;11.970;2023-06-10T14:47:09;1.77;;;1.20;;
14799;SDS011;7491;57.750;11.970;2023-06-10T14:49:37;2.47;;;1.15;;
14799;SDS011;7491;57.750;11.970;2023-06-10T14:52:07;2.72;;;1.50;;
14799;SDS011;7491;57.750;11.970;2023-06-10T14:54:34;1.40;;;1.30;;
14799;SDS011;7491;57.750;11.970;2023-06-10T14:57:00;2.58;;;1.30;;
14799;SDS011;7491;57.750;11.970;2023-06-10T14:59:28;1.65;;;1.33;;